Time;durP1;ratioP1;P1;durP2;ratioP2;P2;SDS_P1;SDS_P2;PMS_P1;PMS_P2;Temp;Humidity;BMP_temperature;BMP_pressure;BME280_temperature;BME280_humidity;BME280_pressure;Samples;Min_cycle;Max_cycle;Signal;HPM_P1;HPM_P2
2021/01/20 00:00:21;;;;;;;1.53;0.70;;;;;;;;;;10343103;28;20734;-70
2021/01/20 00:05:24;;;;;;;1.90;0.80;;;;;;;;;;10363832;28;20251;-69
2021/01/20 00:10:25;;;;;;;2.90;0.73;;;;;;;;;;10359775;28;20304;-71
2021/01/20 00:15:27;;;;;;;1.80;0.83;;;;;;;;;;10365540;28;20218;-71
2021/01/20 00:20:30;;;;;;;2.47;0.50;;;;;;;;;;10358789;28;20298;-69
2021/01/20 00:25:31;;;;;;;0.70;0.40;;;;;;;;;;10358015;28;20182;-69
2021/01/20 00:30:33;;;;;;;2.20;1.00;;;;;;;;;;10360508;28;20242;-69
2021/01/20 00:35:35;;;;;;;1.13;0.57;;;;;;;;;;10358813;28;20245;-69
2021/01/20 00:40:37;;;;;;;1.47;0.57;;;;;;;;;;10367646;28;20249;-70
2021/01/20 00:45:38;;;;;;;1.70;0.80;;;;;;;;;;10348900;28;20226;-70
2021/01/20 00:50:41;;;;;;;1.47;0.83;;;;;;;;;;10362152;28;20245;-71
2021/01/20 00:55:42;;;;;;;1.63;0.80;;;;;;;;;;10345715;28;20257;-71
2021/01/20 01:00:45;;;;;;;0.97;0.60;;;;;;;;;;10362613;28;20234;-71
2021/01/20 01:05:48;;;;;;;2.60;1.00;;;;;;;;;;10371768;28;20239;-71
2021/01/20 01:10:49;;;;;;;2.07;0.67;;;;;;;;;;10350441;28;20249;-69
2021/01/20 01:15:51;;;;;;;1.53;0.70;;;;;;;;;;10360712;28;20218;-69
2021/01/20 01:33:10;;;;;;;1.33;0.90;;;;;;;;;;10346286;28;20206;-71
2021/01/20 01:38:12;;;;;;;2.43;0.90;;;;;;;;;;10355256;28;20222;-70
2021/01/20 01:43:14;;;;;;;1.40;0.80;;;;;;;;;;10357974;28;20199;-68
2021/01/20 01:48:16;;;;;;;2.20;0.80;;;;;;;;;;10356492;28;20314;-68
2021/01/20 01:53:18;;;;;;;3.00;1.20;;;;;;;;;;10364426;28;20265;-70
2021/01/20 01:58:20;;;;;;;2.30;1.00;;;;;;;;;;10361587;28;20293;-70
2021/01/20 02:03:22;;;;;;;1.77;0.87;;;;;;;;;;10359280;28;20191;-69
2021/01/20 02:08:24;;;;;;;2.00;0.83;;;;;;;;;;10362050;28;20215;-70
2021/01/20 02:13:31;;;;;;;2.73;0.90;;;;;;;;;;10357666;28;20249;-69
2021/01/20 02:18:35;;;;;;;1.77;0.90;;;;;;;;;;10363027;28;20292;-71
2021/01/20 02:23:39;;;;;;;1.73;0.90;;;;;;;;;;10372492;28;20238;-70
2021/01/20 02:28:54;;;;;;;1.40;0.80;;;;;;;;;;10366951;28;20222;-71
2021/01/20 02:33:59;;;;;;;2.33;0.90;;;;;;;;;;10353952;28;20233;-71
2021/01/20 02:39:05;;;;;;;1.27;0.80;;;;;;;;;;10365428;28;21225;-71
2021/01/20 02:44:06;;;;;;;1.30;0.83;;;;;;;;;;10348237;28;20195;-69
2021/01/20 02:49:09;;;;;;;1.03;0.50;;;;;;;;;;10363467;28;20312;-72
2021/01/20 02:54:11;;;;;;;2.00;0.73;;;;;;;;;;10369891;28;20218;-71
2021/01/20 02:59:13;;;;;;;2.07;0.67;;;;;;;;;;10356005;28;20297;-70
2021/01/20 03:04:17;;;;;;;1.40;0.80;;;;;;;;;;10365214;28;20191;-70
2021/01/20 03:09:19;;;;;;;0.77;0.50;;;;;;;;;;10355706;28;20210;-71
2021/01/20 03:14:22;;;;;;;1.20;0.57;;;;;;;;;;10366483;28;20309;-71
2021/01/20 03:19:24;;;;;;;1.10;0.70;;;;;;;;;;10365240;28;20681;-71
2021/01/20 03:24:26;;;;;;;2.07;0.67;;;;;;;;;;10367482;28;20205;-70
2021/01/20 03:29:27;;;;;;;1.00;0.50;;;;;;;;;;10364486;28;20736;-72
2021/01/20 03:34:30;;;;;;;1.00;0.53;;;;;;;;;;10360268;28;20218;-71
2021/01/20 03:39:31;;;;;;;2.37;0.80;;;;;;;;;;10362946;28;20222;-70
2021/01/20 03:44:33;;;;;;;0.50;0.33;;;;;;;;;;10359486;28;20209;-70
2021/01/20 03:49:36;;;;;;;1.10;0.60;;;;;;;;;;10365491;28;20218;-71
2021/01/20 03:54:38;;;;;;;0.87;0.60;;;;;;;;;;10369163;28;20248;-70
2021/01/20 03:59:40;;;;;;;1.00;0.70;;;;;;;;;;10364907;28;20217;-71
2021/01/20 04:04:42;;;;;;;1.90;0.70;;;;;;;;;;10366923;28;20543;-71
2021/01/20 04:09:45;;;;;;;1.40;0.60;;;;;;;;;;10364812;28;20253;-72
2021/01/20 04:14:46;;;;;;;0.83;0.60;;;;;;;;;;10362211;28;20706;-68
2021/01/20 04:19:49;;;;;;;0.50;0.40;;;;;;;;;;10341395;28;20231;-70
2021/01/20 04:24:51;;;;;;;1.20;0.40;;;;;;;;;;10359820;28;20277;-70
2021/01/20 04:29:52;;;;;;;1.37;0.67;;;;;;;;;;10364544;28;20610;-70
2021/01/20 04:34:55;;;;;;;1.27;0.40;;;;;;;;;;10365848;28;20586;-71
2021/01/20 04:39:56;;;;;;;1.77;0.40;;;;;;;;;;10366613;28;20234;-72
2021/01/20 04:44:59;;;;;;;2.33;0.90;;;;;;;;;;10344850;28;20195;-69
2021/01/20 04:50:03;;;;;;;0.93;0.57;;;;;;;;;;10358802;28;20214;-71
2021/01/20 04:55:07;;;;;;;0.70;0.40;;;;;;;;;;10344162;28;20292;-71
2021/01/20 05:00:09;;;;;;;1.07;0.70;;;;;;;;;;10344337;28;20305;-71
2021/01/20 05:05:13;;;;;;;1.23;0.50;;;;;;;;;;10347486;28;20394;-71
2021/01/20 05:10:15;;;;;;;1.83;0.60;;;;;;;;;;10361239;28;20752;-71
2021/01/20 05:15:17;;;;;;;2.80;0.90;;;;;;;;;;10352648;28;20297;-71
2021/01/20 05:20:26;;;;;;;1.83;1.00;;;;;;;;;;10363745;28;20273;-70
2021/01/20 05:25:29;;;;;;;1.97;0.80;;;;;;;;;;10359443;28;20182;-70
2021/01/20 05:30:43;;;;;;;2.70;0.80;;;;;;;;;;10362500;28;20330;-70
2021/01/20 05:36:03;;;;;;;3.97;1.20;;;;;;;;;;10355805;28;20218;-70
2021/01/20 05:41:14;;;;;;;1.43;0.73;;;;;;;;;;10342397;28;20260;-70
2021/01/20 05:46:28;;;;;;;2.00;0.93;;;;;;;;;;10359290;28;20278;-72
2021/01/20 05:51:37;;;;;;;3.17;1.13;;;;;;;;;;10353938;28;20217;-71
2021/01/20 05:56:39;;;;;;;1.60;0.87;;;;;;;;;;10360198;28;20191;-71
2021/01/20 06:01:42;;;;;;;1.47;0.70;;;;;;;;;;10359946;28;20234;-70
2021/01/20 06:06:47;;;;;;;1.77;1.00;;;;;;;;;;10338324;28;20190;-72
2021/01/20 06:11:48;;;;;;;2.30;1.10;;;;;;;;;;10362543;28;20666;-72
2021/01/20 06:16:51;;;;;;;2.13;0.90;;;;;;;;;;10362430;28;20284;-71
2021/01/20 06:21:55;;;;;;;1.43;0.77;;;;;;;;;;10363264;28;20221;-71
2021/01/20 06:26:58;;;;;;;2.37;0.87;;;;;;;;;;10360637;28;20277;-71
2021/01/20 06:32:00;;;;;;;1.10;0.63;;;;;;;;;;10361982;28;20214;-71
2021/01/20 06:37:30;;;;;;;1.73;0.63;;;;;;;;;;10351736;28;20230;-72
2021/01/20 06:42:33;;;;;;;1.00;0.60;;;;;;;;;;10345700;28;20214;-70
2021/01/20 06:48:03;;;;;;;0.60;0.60;;;;;;;;;;10355265;28;20195;-71
2021/01/20 06:53:06;;;;;;;3.60;0.80;;;;;;;;;;10360362;28;20265;-72
2021/01/20 06:58:18;;;;;;;2.47;0.90;;;;;;;;;;10329262;28;20595;-72
2021/01/20 07:03:20;;;;;;;3.07;1.10;;;;;;;;;;10350242;28;20194;-70
2021/01/20 07:08:42;;;;;;;2.40;1.10;;;;;;;;;;10352271;28;20268;-71
2021/01/20 07:13:44;;;;;;;1.40;0.80;;;;;;;;;;10368264;28;20793;-71
2021/01/20 07:18:47;;;;;;;2.57;1.10;;;;;;;;;;10372695;28;20226;-70
2021/01/20 07:23:51;;;;;;;4.43;1.10;;;;;;;;;;10353116;28;20293;-71
2021/01/20 07:28:53;;;;;;;2.20;0.80;;;;;;;;;;10371169;28;20298;-72
2021/01/20 07:33:55;;;;;;;2.13;0.67;;;;;;;;;;10351683;28;20229;-71
2021/01/20 07:38:57;;;;;;;2.57;1.10;;;;;;;;;;10339900;28;20241;-71
2021/01/20 07:44:06;;;;;;;1.63;0.90;;;;;;;;;;10339032;28;20698;-70
2021/01/20 07:49:11;;;;;;;3.13;0.93;;;;;;;;;;10362843;28;20222;-71
2021/01/20 07:54:13;;;;;;;2.67;1.07;;;;;;;;;;10375241;28;20228;-70
2021/01/20 07:59:20;;;;;;;2.40;0.90;;;;;;;;;;10345785;28;20253;-70
2021/01/20 08:04:23;;;;;;;2.07;1.17;;;;;;;;;;10346715;28;20559;-70
2021/01/20 08:09:35;;;;;;;3.53;1.53;;;;;;;;;;10367631;28;20585;-70
2021/01/20 08:14:38;;;;;;;4.20;1.60;;;;;;;;;;10342600;28;20790;-69
2021/01/20 08:19:41;;;;;;;2.73;1.03;;;;;;;;;;10364331;28;20226;-70
2021/01/20 08:24:44;;;;;;;5.23;1.70;;;;;;;;;;10364602;28;20201;-70
2021/01/20 08:29:53;;;;;;;4.10;1.80;;;;;;;;;;10365980;28;20671;-70
2021/01/20 08:34:55;;;;;;;5.23;1.30;;;;;;;;;;10366573;28;20669;-70
2021/01/20 08:39:58;;;;;;;2.40;1.40;;;;;;;;;;10346959;28;20238;-70
2021/01/20 08:45:05;;;;;;;3.13;1.40;;;;;;;;;;10364719;28;20198;-69
2021/01/20 08:50:07;;;;;;;2.73;1.47;;;;;;;;;;10362047;28;20218;-69
2021/01/20 08:55:19;;;;;;;3.63;1.43;;;;;;;;;;10361541;28;20269;-69
2021/01/20 09:00:21;;;;;;;4.70;1.20;;;;;;;;;;10363569;28;20285;-69
2021/01/20 09:05:31;;;;;;;3.30;1.40;;;;;;;;;;10374667;28;20238;-69
2021/01/20 09:10:34;;;;;;;1.80;1.20;;;;;;;;;;10364267;28;20211;-70
2021/01/20 09:15:35;;;;;;;5.00;1.60;;;;;;;;;;10359082;28;20230;-71
2021/01/20 09:20:38;;;;;;;3.03;1.40;;;;;;;;;;10364719;28;20214;-71
2021/01/20 09:25:40;;;;;;;4.17;1.63;;;;;;;;;;10343019;28;20274;-70
2021/01/20 09:30:42;;;;;;;3.00;1.50;;;;;;;;;;10357948;28;20717;-71
2021/01/20 09:35:46;;;;;;;3.47;1.60;;;;;;;;;;10352989;28;20591;-71
2021/01/20 09:40:48;;;;;;;5.27;1.80;;;;;;;;;;10337244;28;20300;-71
2021/01/20 09:45:50;;;;;;;3.37;1.60;;;;;;;;;;10340543;28;20223;-69
2021/01/20 09:50:51;;;;;;;3.47;1.60;;;;;;;;;;10362793;28;20262;-70
2021/01/20 09:55:54;;;;;;;3.73;1.80;;;;;;;;;;10353135;28;20211;-68
2021/01/20 10:00:57;;;;;;;2.27;1.13;;;;;;;;;;10355539;28;20698;-69
2021/01/20 10:05:59;;;;;;;3.10;1.30;;;;;;;;;;10362770;28;20191;-69
2021/01/20 10:11:04;;;;;;;8.37;1.53;;;;;;;;;;10350271;28;20712;-71
2021/01/20 10:16:05;;;;;;;3.57;1.40;;;;;;;;;;10361094;28;20285;-70
2021/01/20 10:21:07;;;;;;;1.73;1.03;;;;;;;;;;10373667;28;20814;-72
2021/01/20 10:26:10;;;;;;;1.87;1.23;;;;;;;;;;10348917;28;20291;-71
2021/01/20 10:31:11;;;;;;;2.83;1.40;;;;;;;;;;10361077;28;20571;-69
2021/01/20 10:36:13;;;;;;;2.97;1.33;;;;;;;;;;10355468;28;20300;-70
2021/01/20 10:41:17;;;;;;;3.03;1.38;;;;;;;;;;10369128;28;20222;-69
2021/01/20 10:46:19;;;;;;;6.90;2.85;;;;;;;;;;10344447;28;20245;-71
2021/01/20 10:51:21;;;;;;;6.80;3.08;;;;;;;;;;10357366;28;20218;-71
2021/01/20 10:56:23;;;;;;;12.15;3.70;;;;;;;;;;10366233;28;20278;-71
2021/01/20 11:01:25;;;;;;;7.97;3.25;;;;;;;;;;10363096;28;20218;-70
2021/01/20 11:06:26;;;;;;;8.52;3.13;;;;;;;;;;10363328;28;20186;-70
2021/01/20 11:11:29;;;;;;;11.82;3.67;;;;;;;;;;10366074;28;20214;-72
2021/01/20 11:16:31;;;;;;;8.15;3.40;;;;;;;;;;10363342;28;20761;-71
2021/01/20 11:21:32;;;;;;;7.50;2.88;;;;;;;;;;10364039;28;20853;-70
2021/01/20 11:26:35;;;;;;;5.78;2.90;;;;;;;;;;10348231;28;20983;-70
2021/01/20 11:31:37;;;;;;;7.13;2.97;;;;;;;;;;10368237;28;20357;-70
2021/01/20 11:36:38;;;;;;;7.32;3.28;;;;;;;;;;10371508;28;20278;-69
2021/01/20 11:41:41;;;;;;;7.90;3.10;;;;;;;;;;10373816;28;20689;-70
2021/01/20 11:46:42;;;;;;;8.23;3.10;;;;;;;;;;10367981;28;20194;-70
2021/01/20 11:51:45;;;;;;;6.07;2.88;;;;;;;;;;10371871;28;20226;-70
2021/01/20 11:56:47;;;;;;;6.78;2.90;;;;;;;;;;10361556;28;20229;-71
2021/01/20 12:01:49;;;;;;;4.88;2.83;;;;;;;;;;10363774;28;20317;-73
2021/01/20 12:06:50;;;;;;;7.85;3.83;;;;;;;;;;10359424;28;20190;-69
2021/01/20 12:11:53;;;;;;;6.55;3.05;;;;;;;;;;10384711;28;20231;-70
2021/01/20 12:16:54;;;;;;;7.60;3.85;;;;;;;;;;10372337;28;20219;-71
2021/01/20 12:21:56;;;;;;;6.18;2.72;;;;;;;;;;10380662;28;20245;-70
2021/01/20 12:26:59;;;;;;;8.00;3.17;;;;;;;;;;10357843;28;20198;-72
2021/01/20 12:32:03;;;;;;;8.68;3.35;;;;;;;;;;10347188;28;20556;-70
2021/01/20 12:37:07;;;;;;;8.32;3.38;;;;;;;;;;10364492;28;20220;-69
2021/01/20 12:42:09;;;;;;;7.65;3.75;;;;;;;;;;10364631;28;20210;-71
2021/01/20 12:47:11;;;;;;;8.65;3.55;;;;;;;;;;10359318;28;20638;-71
2021/01/20 12:52:13;;;;;;;10.63;3.53;;;;;;;;;;10360753;28;20278;-71
2021/01/20 12:57:15;;;;;;;11.10;3.72;;;;;;;;;;10357049;28;20648;-70
2021/01/20 13:02:17;;;;;;;11.18;4.18;;;;;;;;;;10333782;28;20241;-71
2021/01/20 13:07:19;;;;;;;10.63;3.80;;;;;;;;;;10342492;28;20205;-70
2021/01/20 13:12:22;;;;;;;12.90;3.60;;;;;;;;;;10365363;28;20246;-70
2021/01/20 13:17:23;;;;;;;9.77;3.80;;;;;;;;;;10362333;28;20227;-71
2021/01/20 13:22:25;;;;;;;8.40;3.37;;;;;;;;;;10344747;28;20276;-72
2021/01/20 13:27:28;;;;;;;9.40;3.33;;;;;;;;;;10345652;28;20186;-72
2021/01/20 13:32:29;;;;;;;7.17;3.17;;;;;;;;;;10362112;28;20670;-71
2021/01/20 13:37:31;;;;;;;7.97;3.37;;;;;;;;;;10347573;28;20206;-70
2021/01/20 13:42:34;;;;;;;8.83;3.40;;;;;;;;;;10362569;28;20643;-70
2021/01/20 13:47:36;;;;;;;8.33;3.10;;;;;;;;;;10356929;28;20188;-70
2021/01/20 13:52:37;;;;;;;8.00;2.97;;;;;;;;;;10361308;28;20244;-70
2021/01/20 13:57:40;;;;;;;9.00;2.93;;;;;;;;;;10362018;28;20268;-71
2021/01/20 14:02:41;;;;;;;9.33;3.10;;;;;;;;;;10368240;28;20614;-71
2021/01/20 14:07:43;;;;;;;9.30;2.83;;;;;;;;;;10346362;28;20638;-71
2021/01/20 14:12:46;;;;;;;8.53;3.07;;;;;;;;;;10371089;28;20627;-70
2021/01/20 14:17:47;;;;;;;8.83;2.93;;;;;;;;;;10366715;28;20250;-71
2021/01/20 14:22:49;;;;;;;9.93;3.03;;;;;;;;;;10367981;28;20257;-70
2021/01/20 14:27:51;;;;;;;8.67;2.87;;;;;;;;;;10356000;28;20198;-71
2021/01/20 14:32:53;;;;;;;10.60;3.33;;;;;;;;;;10373455;28;20198;-72
2021/01/20 14:37:55;;;;;;;7.50;3.00;;;;;;;;;;10372880;28;20575;-71
2021/01/20 14:42:57;;;;;;;6.97;2.77;;;;;;;;;;10368488;28;20202;-71
2021/01/20 14:47:59;;;;;;;8.53;3.30;;;;;;;;;;10369812;28;20276;-71
2021/01/20 14:53:03;;;;;;;6.27;2.97;;;;;;;;;;10358438;28;20214;-71
2021/01/20 14:58:06;;;;;;;9.10;3.50;;;;;;;;;;10358298;28;20285;-71
2021/01/20 15:03:07;;;;;;;8.80;3.23;;;;;;;;;;10371002;28;20254;-71
2021/01/20 15:08:10;;;;;;;15.57;6.47;;;;;;;;;;10352257;28;20257;-71
2021/01/20 15:13:13;;;;;;;9.93;3.17;;;;;;;;;;10352273;28;20614;-70
2021/01/20 15:18:14;;;;;;;10.10;3.10;;;;;;;;;;10369656;28;20723;-71
2021/01/20 15:23:16;;;;;;;8.07;3.27;;;;;;;;;;10358124;28;20226;-71
2021/01/20 15:28:19;;;;;;;7.17;3.30;;;;;;;;;;10345338;28;20338;-70
2021/01/20 15:33:20;;;;;;;10.10;3.27;;;;;;;;;;10364461;28;20290;-71
2021/01/20 15:38:23;;;;;;;8.63;3.70;;;;;;;;;;10369893;28;20239;-71
2021/01/20 15:43:25;;;;;;;10.50;3.47;;;;;;;;;;10357846;28;20225;-72
2021/01/20 15:48:27;;;;;;;10.20;3.17;;;;;;;;;;10362242;28;20273;-70
2021/01/20 15:53:30;;;;;;;12.77;3.37;;;;;;;;;;10351911;28;20217;-70
2021/01/20 15:58:32;;;;;;;11.03;3.67;;;;;;;;;;10348136;28;20305;-71
2021/01/20 16:03:34;;;;;;;9.80;3.30;;;;;;;;;;10363123;28;20206;-70
2021/01/20 16:08:35;;;;;;;12.37;3.63;;;;;;;;;;10361922;28;20689;-71
2021/01/20 16:13:37;;;;;;;9.30;3.40;;;;;;;;;;10367270;28;20203;-72
2021/01/20 16:18:39;;;;;;;13.40;3.70;;;;;;;;;;10339866;28;20314;-72
2021/01/20 16:23:41;;;;;;;11.23;3.60;;;;;;;;;;10360689;28;20203;-71
2021/01/20 16:28:43;;;;;;;8.77;2.87;;;;;;;;;;10361258;28;20650;-73
2021/01/20 16:33:45;;;;;;;11.50;3.70;;;;;;;;;;10363035;28;20213;-70
2021/01/20 16:38:46;;;;;;;7.77;3.30;;;;;;;;;;10364044;28;20234;-71
2021/01/20 16:43:49;;;;;;;9.27;3.60;;;;;;;;;;10357319;28;20550;-70
2021/01/20 16:48:50;;;;;;;5.80;2.53;;;;;;;;;;10364399;28;20264;-69
2021/01/20 16:53:52;;;;;;;9.13;2.60;;;;;;;;;;10367643;28;20210;-71
2021/01/20 16:58:55;;;;;;;8.03;2.57;;;;;;;;;;10363665;28;20654;-72
2021/01/20 17:03:56;;;;;;;6.10;2.53;;;;;;;;;;10361826;28;20195;-71
2021/01/20 17:08:58;;;;;;;10.27;2.90;;;;;;;;;;10361310;28;20218;-71
2021/01/20 17:14:03;;;;;;;7.70;3.43;;;;;;;;;;10360410;28;20238;-72
2021/01/20 17:19:05;;;;;;;8.20;3.43;;;;;;;;;;10359841;28;20233;-70
2021/01/20 17:24:07;;;;;;;8.07;2.80;;;;;;;;;;10361251;28;20197;-71
2021/01/20 17:29:09;;;;;;;11.23;4.53;;;;;;;;;;10362348;28;20250;-70
2021/01/20 17:34:12;;;;;;;6.87;2.30;;;;;;;;;;10356836;28;20210;-71
2021/01/20 17:39:16;;;;;;;3.70;1.50;;;;;;;;;;10361917;28;20227;-71
2021/01/20 17:44:19;;;;;;;5.47;2.50;;;;;;;;;;10360618;28;20218;-70
2021/01/20 17:49:24;;;;;;;9.17;3.33;;;;;;;;;;10355465;28;20233;-74
2021/01/20 17:54:25;;;;;;;10.50;3.50;;;;;;;;;;10358903;28;20233;-70
2021/01/20 17:59:29;;;;;;;8.07;2.97;;;;;;;;;;10357739;28;20682;-72
2021/01/20 18:04:31;;;;;;;7.37;2.80;;;;;;;;;;10362108;28;20214;-71
2021/01/20 18:09:34;;;;;;;7.57;2.37;;;;;;;;;;10345775;28;20221;-71
2021/01/20 18:14:37;;;;;;;8.23;3.00;;;;;;;;;;10360994;28;20215;-70
2021/01/20 18:19:39;;;;;;;9.20;3.27;;;;;;;;;;10349399;28;20222;-70
2021/01/20 18:24:41;;;;;;;10.97;3.20;;;;;;;;;;10367592;28;20197;-73
2021/01/20 18:29:46;;;;;;;12.57;3.40;;;;;;;;;;10364415;28;20305;-72
2021/01/20 18:34:48;;;;;;;10.90;4.13;;;;;;;;;;10362606;28;20709;-70
2021/01/20 18:39:52;;;;;;;11.27;3.90;;;;;;;;;;10350087;28;20313;-70
2021/01/20 18:45:10;;;;;;;9.70;4.30;;;;;;;;;;10355182;28;20667;-70
2021/01/20 18:50:12;;;;;;;10.20;4.97;;;;;;;;;;10342514;28;20309;-70
2021/01/20 18:55:14;;;;;;;9.87;4.20;;;;;;;;;;10375276;28;20202;-71
2021/01/20 19:00:17;;;;;;;12.97;4.33;;;;;;;;;;10359836;28;20226;-69
2021/01/20 19:05:19;;;;;;;7.60;2.87;;;;;;;;;;10371291;28;20191;-70
2021/01/20 19:10:21;;;;;;;10.97;4.20;;;;;;;;;;10350137;28;20229;-71
2021/01/20 19:15:24;;;;;;;11.20;4.30;;;;;;;;;;10370986;28;20242;-69
2021/01/20 19:20:26;;;;;;;9.27;4.10;;;;;;;;;;10343806;28;20803;-70
2021/01/20 19:25:29;;;;;;;11.50;4.23;;;;;;;;;;10349291;28;20277;-69
2021/01/20 19:30:31;;;;;;;9.30;3.60;;;;;;;;;;10368674;28;20214;-69
2021/01/20 19:35:38;;;;;;;9.87;4.83;;;;;;;;;;10372304;28;20215;-69
2021/01/20 19:40:45;;;;;;;7.73;3.33;;;;;;;;;;10366575;28;20218;-69
2021/01/20 19:45:49;;;;;;;9.60;3.17;;;;;;;;;;10347359;28;20195;-69
2021/01/20 19:50:56;;;;;;;9.07;4.30;;;;;;;;;;10348898;28;20715;-71
2021/01/20 19:56:01;;;;;;;11.63;4.13;;;;;;;;;;10373640;28;20718;-70
2021/01/20 20:01:08;;;;;;;10.33;4.13;;;;;;;;;;10374539;28;20226;-71
2021/01/20 20:06:14;;;;;;;8.80;3.43;;;;;;;;;;10374280;28;20191;-70
2021/01/20 20:11:19;;;;;;;9.93;4.07;;;;;;;;;;10366562;28;20329;-71
2021/01/20 20:16:23;;;;;;;9.50;4.13;;;;;;;;;;10349788;28;20381;-70
2021/01/20 20:21:26;;;;;;;9.50;5.97;;;;;;;;;;10370828;28;20215;-71
2021/01/20 20:26:28;;;;;;;7.70;3.00;;;;;;;;;;10369171;28;20237;-71
2021/01/20 20:31:30;;;;;;;7.80;3.40;;;;;;;;;;10378253;28;20233;-70
2021/01/20 20:36:37;;;;;;;8.37;3.20;;;;;;;;;;10374726;28;20218;-72
2021/01/20 20:41:39;;;;;;;9.47;3.93;;;;;;;;;;10367304;28;20399;-72
2021/01/20 20:46:42;;;;;;;11.20;3.90;;;;;;;;;;10368538;28;20225;-70
2021/01/20 20:51:45;;;;;;;8.93;3.50;;;;;;;;;;10359176;28;20218;-70
2021/01/20 20:56:46;;;;;;;11.07;4.80;;;;;;;;;;10365166;28;20658;-68
2021/01/20 21:01:49;;;;;;;9.90;4.63;;;;;;;;;;10369693;28;20297;-72
2021/01/20 21:06:51;;;;;;;10.53;4.40;;;;;;;;;;10361519;28;20191;-71
2021/01/20 21:11:53;;;;;;;11.30;4.00;;;;;;;;;;10364166;28;20585;-70
2021/01/20 21:16:56;;;;;;;12.43;4.97;;;;;;;;;;10364708;28;20305;-70
2021/01/20 21:21:58;;;;;;;11.97;4.73;;;;;;;;;;10350417;28;20616;-70
2021/01/20 21:27:03;;;;;;;13.13;5.37;;;;;;;;;;10366329;28;20594;-69
2021/01/20 21:32:06;;;;;;;11.23;5.30;;;;;;;;;;10347366;28;20590;-70
2021/01/20 21:37:08;;;;;;;12.33;5.13;;;;;;;;;;10360510;28;20210;-69
2021/01/20 21:42:11;;;;;;;12.30;5.00;;;;;;;;;;10354833;28;20225;-70
2021/01/20 21:47:14;;;;;;;8.37;3.40;;;;;;;;;;10353591;28;20892;-69
2021/01/20 21:52:16;;;;;;;8.40;3.63;;;;;;;;;;10373171;28;20216;-71
2021/01/20 21:57:18;;;;;;;13.70;4.77;;;;;;;;;;10346221;28;20689;-68
2021/01/20 22:02:21;;;;;;;10.70;4.13;;;;;;;;;;10372267;28;20228;-69
2021/01/20 22:07:24;;;;;;;14.67;6.50;;;;;;;;;;10362139;28;20194;-68
2021/01/20 22:12:25;;;;;;;9.13;4.40;;;;;;;;;;10354458;28;20252;-68
2021/01/20 22:17:28;;;;;;;9.63;4.60;;;;;;;;;;10343402;28;20222;-69
2021/01/20 22:22:30;;;;;;;9.77;4.50;;;;;;;;;;10370640;28;20559;-68
2021/01/20 22:27:31;;;;;;;8.90;4.33;;;;;;;;;;10366991;28;21583;-68
2021/01/20 22:32:35;;;;;;;9.93;4.87;;;;;;;;;;10366989;28;20669;-68
2021/01/20 22:37:37;;;;;;;10.57;4.90;;;;;;;;;;10373087;28;20253;-69
2021/01/20 22:42:39;;;;;;;10.50;4.63;;;;;;;;;;10372387;28;20678;-69
2021/01/20 22:47:41;;;;;;;10.30;5.37;;;;;;;;;;10362878;28;20560;-68
2021/01/20 22:52:43;;;;;;;12.23;4.80;;;;;;;;;;10371449;28;20566;-69
2021/01/20 22:57:45;;;;;;;9.57;4.57;;;;;;;;;;10349894;28;20214;-68
2021/01/20 23:02:48;;;;;;;9.73;5.33;;;;;;;;;;10357812;28;20273;-69
2021/01/20 23:07:49;;;;;;;8.90;3.70;;;;;;;;;;10349129;28;20565;-67
2021/01/20 23:12:51;;;;;;;15.43;6.50;;;;;;;;;;10363353;28;20211;-68
2021/01/20 23:17:54;;;;;;;9.17;4.57;;;;;;;;;;10363569;28;20295;-68
2021/01/20 23:22:56;;;;;;;10.70;4.57;;;;;;;;;;10352566;28;20231;-69
2021/01/20 23:27:57;;;;;;;10.23;4.03;;;;;;;;;;10365917;28;20282;-68
2021/01/20 23:33:03;;;;;;;8.43;3.30;;;;;;;;;;10371184;28;20584;-69
2021/01/20 23:38:05;;;;;;;7.30;3.37;;;;;;;;;;10383098;28;20217;-70
2021/01/20 23:43:07;;;;;;;9.73;4.47;;;;;;;;;;10371326;28;20277;-69
2021/01/20 23:48:10;;;;;;;8.00;3.67;;;;;;;;;;10378586;28;20273;-69
2021/01/20 23:53:12;;;;;;;11.93;5.63;;;;;;;;;;10376050;28;20256;-69
2021/01/20 23:58:13;;;;;;;10.20;4.27;;;;;;;;;;10373307;28;20288;-67
